• Join FlightAware (Why Join?)
  • Login
  • US Flag 
03:37AM EDT


 

Airport Tracker/Info


-or-


 

Live Flight TrackerFlight Track Log ✈ TYR94 ✈ 19-Apr-2013 ✈ KIAD - LOWW / VIE

Flight Track Log - Related Links

Times and Time Zones

All times are in EDT time to prevent confusion due to time zone crossing. See the TYR94 flight status page for this flight to view local times or setup timezone preferences in your user account.

Time Position Orientation Groundspeed Altitude Reporting Facility
EDT Latitude Longitude Course Direction KTS MPH feet Rate Location/Type
06:55PM 40.1006 -75.7928 48° Northeast  Level Estimated
06:56PM 40.1883 -75.6623 49° Northeast  Level Estimated
06:57PM 40.2759 -75.5314 49° Northeast  Level Estimated
06:58PM 40.3633 -75.4002 49° Northeast  Level Estimated
06:59PM 40.4506 -75.2686 49° Northeast  Level Estimated
07:00PM 40.5377 -75.1367 49° Northeast  Level Estimated
07:01PM 40.6246 -75.0044 49° Northeast  Level Estimated
07:02PM 40.7114 -74.8718 49° Northeast  Level Estimated
07:03PM 40.7981 -74.7389 49° Northeast  Level Estimated
07:04PM 40.8846 -74.6056 49° Northeast  Level Estimated
07:05PM 40.9710 -74.4719 49° Northeast  Level Estimated
07:06PM 41.0572 -74.3379 50° Northeast  Level Estimated
07:07PM 41.1432 -74.2036 50° Northeast  Level Estimated
07:08PM 41.2291 -74.0689 50° Northeast  Level Estimated
07:09PM 41.3148 -73.9338 50° Northeast  Level Estimated
07:10PM 41.4004 -73.7984 50° Northeast  Level Estimated
07:11PM 41.4858 -73.6627 50° Northeast  Level Estimated
07:12PM 41.5710 -73.5266 50° Northeast  Level Estimated
07:13PM 41.6561 -73.3901 50° Northeast  Level Estimated
07:14PM 41.7411 -73.2532 50° Northeast  Level Estimated
07:15PM 41.8258 -73.1160 50° Northeast  Level Estimated
07:16PM 41.9104 -72.9785 50° Northeast  Level Estimated
07:17PM 41.9949 -72.8405 50° Northeast  Level Estimated
07:18PM 42.0791 -72.7022 51° Northeast  Level Estimated
07:19PM 42.1632 -72.5636 51° Northeast  Level Estimated
07:20PM 42.2472 -72.4245 51° Northeast  Level Estimated
07:21PM 42.3309 -72.2851 51° Northeast  Level Estimated
07:22PM 42.4145 -72.1453 51° Northeast  Level Estimated
07:23PM 42.4980 -72.0052 51° Northeast  Level Estimated
07:24PM 42.5812 -71.8647 51° Northeast  Level Estimated
07:25PM 42.6643 -71.7238 51° Northeast  Level Estimated
07:26PM 42.7472 -71.5825 51° Northeast  Level Estimated
07:27PM 42.8300 -71.4408 51° Northeast  Level Estimated
07:28PM 42.9125 -71.2988 52° Northeast  Level Estimated
07:29PM 42.9949 -71.1564 52° Northeast  Level Estimated
07:30PM 43.0771 -71.0136 52° Northeast  Level Estimated
07:31PM 43.1592 -70.8704 52° Northeast  Level Estimated
07:32PM 43.2410 -70.7269 52° Northeast  Level Estimated
07:33PM 43.3227 -70.5829 52° Northeast  Level Estimated
07:34PM 43.4042 -70.4386 52° Northeast  Level Estimated
07:35PM 43.4855 -70.2938 52° Northeast  Level Estimated
07:36PM 43.5666 -70.1487 52° Northeast  Level Estimated
07:37PM 43.6475 -70.0032 52° Northeast  Level Estimated
07:38PM 43.7283 -69.8573 53° Northeast  Level Estimated
07:39PM 43.8089 -69.7110 53° Northeast  Level Estimated
07:40PM 43.8893 -69.5643 53° Northeast  Level Estimated
07:41PM 43.9695 -69.4173 53° Northeast  Level Estimated
07:42PM 44.0495 -69.2698 53° Northeast  Level Estimated
07:43PM 44.1293 -69.1219 53° Northeast  Level Estimated
07:44PM 44.2089 -68.9736 53° Northeast  Level Estimated
07:45PM 44.2883 -68.8249 53° Northeast  Level Estimated
07:46PM 44.3676 -68.6758 53° Northeast  Level Estimated
07:47PM 44.4466 -68.5264 53° Northeast  Level Estimated
07:48PM 44.5255 -68.3765 54° Northeast  Level Estimated
07:49PM 44.6041 -68.2262 54° Northeast  Level Estimated
07:50PM 44.6826 -68.0755 54° Northeast  Level Estimated
07:51PM 44.7609 -67.9244 54° Northeast  Level Estimated
07:52PM 44.8389 -67.7729 54° Northeast  Level Estimated
07:53PM 44.9168 -67.6209 54° Northeast  Level Estimated
07:54PM 44.9944 -67.4686 54° Northeast  Level Estimated
07:55PM 45.0719 -67.3158 54° Northeast  Level Estimated
07:56PM 45.1491 -67.1627 54° Northeast  Level Estimated
07:57PM 45.2262 -67.0091 55° Northeast  Level Estimated
07:58PM 45.3030 -66.8551 55° Northeast  Level Estimated
07:59PM 45.3796 -66.7007 55° Northeast  Level Estimated
08:00PM 45.4561 -66.5458 55° Northeast  Level Estimated
08:01PM 45.5323 -66.3906 55° Northeast  Level Estimated
08:02PM 45.6083 -66.2349 55° Northeast  Level Estimated
08:03PM 45.6841 -66.0788 55° Northeast  Level Estimated
08:04PM 45.7596 -65.9223 55° Northeast  Level Estimated
08:05PM 45.8350 -65.7653 55° Northeast  Level Estimated
08:06PM 45.9101 -65.6079 56° Northeast  Level Estimated
08:07PM 45.9851 -65.4501 56° Northeast  Level Estimated
08:08PM 46.0598 -65.2919 56° Northeast  Level Estimated
08:09PM 46.1343 -65.1333 56° Northeast  Level Estimated
08:10PM 46.2085 -64.9742 56° Northeast  Level Estimated
08:11PM 46.2826 -64.8147 56° Northeast  Level Estimated
08:12PM 46.3564 -64.6547 56° Northeast  Level Estimated
08:13PM 46.4300 -64.4944 56° Northeast  Level Estimated
08:14PM 46.5034 -64.3336 56° Northeast  Level Estimated
08:15PM 46.5765 -64.1723 57° Northeast  Level Estimated
08:16PM 46.6495 -64.0107 57° Northeast  Level Estimated
08:17PM 46.7222 -63.8485 57° Northeast  Level Estimated
08:18PM 46.7946 -63.6860 57° Northeast  Level Estimated
08:19PM 46.8669 -63.5230 57° Northeast  Level Estimated
08:20PM 46.9389 -63.3596 57° Northeast  Level Estimated
08:21PM 47.0107 -63.1957 57° Northeast  Level Estimated
08:22PM 47.0822 -63.0314 57° Northeast  Level Estimated
08:23PM 47.1535 -62.8667 57° Northeast  Level Estimated
08:24PM 47.2246 -62.7015 58° Northeast  Level Estimated
08:25PM 47.2954 -62.5359 58° Northeast  Level Estimated
08:26PM 47.3660 -62.3698 58° Northeast  Level Estimated
08:27PM 47.4363 -62.2033 58° Northeast  Level Estimated
08:28PM 47.5064 -62.0363 58° Northeast  Level Estimated
08:29PM 47.5763 -61.8689 58° Northeast  Level Estimated
08:30PM 47.6459 -61.7010 58° Northeast  Level Estimated
08:31PM 47.7153 -61.5327 58° Northeast  Level Estimated
08:32PM 47.7844 -61.3640 59° Northeast  Level Estimated
08:33PM 47.8533 -61.1948 59° Northeast  Level Estimated
08:34PM 47.9219 -61.0251 59° Northeast  Level Estimated
08:35PM 47.9903 -60.8550 59° Northeast  Level Estimated
08:36PM 48.0584 -60.6845 59° Northeast  Level Estimated
08:37PM 48.1263 -60.5135 59° Northeast  Level Estimated
08:38PM 48.1939 -60.3420 59° Northeast  Level Estimated
08:39PM 48.2613 -60.1701 59° Northeast  Level Estimated
08:40PM 48.3284 -59.9978 60° Northeast  Level Estimated
08:41PM 48.3952 -59.8250 60° Northeast  Level Estimated
08:42PM 48.4618 -59.6517 60° Northeast  Level Estimated
08:43PM 48.5282 -59.4780 60° Northeast  Level Estimated
08:44PM 48.5942 -59.3038 60° Northeast  Level Estimated
08:45PM 48.6600 -59.1292 60° Northeast  Level Estimated
08:46PM 48.7256 -58.9541 60° Northeast  Level Estimated
08:47PM 48.7909 -58.7786 61° Northeast  Level Estimated
08:48PM 48.8559 -58.6026 61° Northeast  Level Estimated
08:49PM 48.9206 -58.4261 61° Northeast  Level Estimated
08:50PM 48.9851 -58.2492 61° Northeast  Level Estimated
08:51PM 49.0493 -58.0718 61° Northeast  Level Estimated
08:52PM 49.1132 -57.8940 61° Northeast  Level Estimated
08:53PM 49.1768 -57.7157 61° Northeast  Level Estimated
08:54PM 49.2402 -57.5370 61° Northeast  Level Estimated
08:55PM 49.3033 -57.3578 62° Northeast  Level Estimated
08:56PM 49.3661 -57.1781 62° Northeast  Level Estimated
08:57PM 49.4287 -56.9980 62° Northeast  Level Estimated
08:58PM 49.4909 -56.8174 62° Northeast  Level Estimated
08:59PM 49.5529 -56.6364 62° Northeast  Level Estimated
09:00PM 49.6146 -56.4549 62° Northeast  Level Estimated
09:01PM 49.6760 -56.2729 62° Northeast  Level Estimated
09:02PM 49.7371 -56.0905 63° Northeast  Level Estimated
09:03PM 49.7980 -55.9077 63° Northeast  Level Estimated
09:04PM 49.8585 -55.7243 63° Northeast  Level Estimated
09:05PM 49.9188 -55.5406 63° Northeast  Level Estimated
09:06PM 49.9787 -55.3563 63° Northeast  Level Estimated
09:07PM 50.0384 -55.1716 63° Northeast  Level Estimated
09:08PM 50.0978 -54.9864 63° Northeast  Level Estimated
09:09PM 50.1569 -54.8008 64° Northeast  Level Estimated
09:10PM 50.2157 -54.6147 64° Northeast  Level Estimated
09:11PM 50.2742 -54.4282 64° Northeast  Level Estimated
09:12PM 50.3324 -54.2412 64° Northeast  Level Estimated
09:13PM 50.3903 -54.0537 64° Northeast  Level Estimated
09:14PM 50.4478 -53.8658 64° Northeast  Level Estimated
09:15PM 50.5051 -53.6775 64° Northeast  Level Estimated
09:16PM 50.5621 -53.4886 65° Northeast  Level Estimated
09:17PM 50.6188 -53.2994 65° Northeast  Level Estimated
09:18PM 50.6752 -53.1096 65° Northeast  Level Estimated
09:19PM 50.7312 -52.9194 65° Northeast  Level Estimated
09:20PM 50.7870 -52.7288 65° Northeast  Level Estimated
09:21PM 50.8424 -52.5377 65° Northeast  Level Estimated
09:22PM 50.8975 -52.3461 65° Northeast  Level Estimated
09:23PM 50.9524 -52.1541 66° East  Level Estimated
09:24PM 51.0069 -51.9617 66° East  Level Estimated
09:25PM 51.0610 -51.7687 66° East  Level Estimated
09:26PM 51.1149 -51.5754 66° East  Level Estimated
09:27PM 51.1684 -51.3816 66° East  Level Estimated
09:28PM 51.2217 -51.1873 66° East  Level Estimated
09:29PM 51.2746 -50.9926 66° East  Level Estimated
09:30PM 51.3271 -50.7975 67° East  Level Estimated
09:31PM 51.3794 -50.6018 67° East  Level Estimated
09:32PM 51.4313 -50.4058 67° East  Level Estimated
09:33PM 51.4829 -50.2093 67° East  Level Estimated
09:34PM 51.5342 -50.0124 67° East  Level Estimated
09:35PM 51.5851 -49.8150 67° East  Level Estimated
09:36PM 51.6357 -49.6172 68° East  Level Estimated
09:37PM 51.6860 -49.4189 68° East  Level Estimated
09:38PM 51.7359 -49.2202 68° East  Level Estimated
09:39PM 51.7855 -49.0211 68° East  Level Estimated
09:40PM 51.8348 -48.8215 68° East  Level Estimated
09:41PM 51.8837 -48.6215 68° East  Level Estimated
09:42PM 51.9323 -48.4211 68° East  Level Estimated
09:43PM 51.9805 -48.2202 69° East  Level Estimated
09:44PM 52.0284 -48.0189 69° East  Level Estimated
09:45PM 52.0760 -47.8171 69° East  Level Estimated
09:46PM 52.1232 -47.6149 69° East  Level Estimated
09:47PM 52.1701 -47.4123 69° East  Level Estimated
09:48PM 52.2166 -47.2093 69° East  Level Estimated
09:49PM 52.2628 -47.0059 70° East  Level Estimated
09:50PM 52.3086 -46.8020 70° East  Level Estimated
09:51PM 52.3540 -46.5977 70° East  Level Estimated
09:52PM 52.3992 -46.3930 70° East  Level Estimated
09:53PM 52.4439 -46.1879 70° East  Level Estimated
09:54PM 52.4883 -45.9823 70° East  Level Estimated
09:55PM 52.5324 -45.7764 71° East  Level Estimated
09:56PM 52.5761 -45.5700 71° East  Level Estimated
09:57PM 52.6194 -45.3632 71° East  Level Estimated
09:58PM 52.6624 -45.1561 71° East  Level Estimated
09:59PM 52.7050 -44.9485 71° East  Level Estimated
10:00PM 52.7472 -44.7405 71° East  Level Estimated
10:01PM 52.7891 -44.5321 72° East  Level Estimated
10:02PM 52.8306 -44.3233 72° East  Level Estimated
10:03PM 52.8717 -44.1141 72° East  Level Estimated
10:04PM 52.9125 -43.9045 72° East  Level Estimated
10:05PM 52.9529 -43.6945 72° East  Level Estimated
10:06PM 52.9930 -43.4841 72° East  Level Estimated
10:07PM 53.0326 -43.2734 73° East  Level Estimated
10:08PM 53.0719 -43.0622 73° East  Level Estimated
10:09PM 53.1109 -42.8507 73° East  Level Estimated
10:10PM 53.1494 -42.6388 73° East  Level Estimated
10:11PM 53.1876 -42.4265 73° East  Level Estimated
10:12PM 53.2254 -42.2138 73° East  Level Estimated
10:13PM 53.2628 -42.0008 74° East  Level Estimated
10:14PM 53.2998 -41.7874 74° East  Level Estimated
10:15PM 53.3364 -41.5736 74° East  Level Estimated
10:16PM 53.3727 -41.3595 74° East  Level Estimated
10:17PM 53.4086 -41.1450 74° East  Level Estimated
10:18PM 53.4441 -40.9301 74° East  Level Estimated
10:19PM 53.4792 -40.7149 75° East  Level Estimated
10:20PM 53.5139 -40.4993 75° East  Level Estimated
10:21PM 53.5482 -40.2833 75° East  Level Estimated
10:22PM 53.5822 -40.0671 75° East  Level Estimated
10:23PM 53.6157 -39.8504 75° East  Level Estimated
10:24PM 53.6489 -39.6335 75° East  Level Estimated
10:25PM 53.6817 -39.4161 76° East  Level Estimated
10:26PM 53.7140 -39.1985 76° East  Level Estimated
10:27PM 53.7460 -38.9805 76° East  Level Estimated
10:28PM 53.7776 -38.7622 76° East  Level Estimated
10:29PM 53.8088 -38.5436 76° East  Level Estimated
10:30PM 53.8396 -38.3246 77° East  Level Estimated
10:31PM 53.8700 -38.1053 77° East  Level Estimated
10:32PM 53.9000 -37.8857 77° East  Level Estimated
10:33PM 53.9296 -37.6658 77° East  Level Estimated
10:34PM 53.9587 -37.4456 77° East  Level Estimated
10:35PM 53.9875 -37.2251 77° East  Level Estimated
10:36PM 54.0159 -37.0042 78° East  Level Estimated
10:37PM 54.0439 -36.7831 78° East  Level Estimated
10:38PM 54.0714 -36.5617 78° East  Level Estimated
10:39PM 54.0986 -36.3400 78° East  Level Estimated
10:40PM 54.1254 -36.1180 78° East  Level Estimated
10:41PM 54.1517 -35.8957 78° East  Level Estimated
10:42PM 54.1776 -35.6731 79° East  Level Estimated
10:43PM 54.2031 -35.4502 79° East  Level Estimated
10:44PM 54.2282 -35.2271 79° East  Level Estimated
10:45PM 54.2529 -35.0037 79° East  Level Estimated
10:46PM 54.2772 -34.7801 79° East  Level Estimated
10:47PM 54.3011 -34.5561 80° East  Level Estimated
10:48PM 54.3246 -34.3320 80° East  Level Estimated
10:49PM 54.3476 -34.1075 80° East  Level Estimated
10:50PM 54.3702 -33.8829 80° East  Level Estimated
10:51PM 54.3924 -33.6579 80° East  Level Estimated
10:52PM 54.4142 -33.4328 80° East  Level Estimated
10:53PM 54.4356 -33.2074 81° East  Level Estimated
10:54PM 54.4565 -32.9817 81° East  Level Estimated
10:55PM 54.4771 -32.7559 81° East  Level Estimated
10:56PM 54.4972 -32.5298 81° East  Level Estimated
10:57PM 54.5168 -32.3035 81° East  Level Estimated
10:58PM 54.5361 -32.0770 82° East  Level Estimated
10:59PM 54.5549 -31.8502 82° East  Level Estimated
11:00PM 54.5733 -31.6233 82° East  Level Estimated
11:01PM 54.5913 -31.3961 82° East  Level Estimated
11:02PM 54.6089 -31.1688 82° East  Level Estimated
11:03PM 54.6260 -30.9412 82° East  Level Estimated
11:04PM 54.6427 -30.7135 83° East  Level Estimated
11:05PM 54.6590 -30.4856 83° East  Level Estimated
11:06PM 54.6749 -30.2575 83° East  Level Estimated
11:07PM 54.6903 -30.0292 83° East  Level Estimated
11:08PM 54.7053 -29.8008 83° East  Level Estimated
11:09PM 54.7198 -29.5722 84° East  Level Estimated
11:10PM 54.7340 -29.3434 84° East  Level Estimated
11:11PM 54.7477 -29.1145 84° East  Level Estimated
11:12PM 54.7609 -28.8854 84° East  Level Estimated
11:13PM 54.7738 -28.6562 84° East  Level Estimated
11:14PM 54.7862 -28.4268 85° East  Level Estimated
11:15PM 54.7981 -28.1973 85° East  Level Estimated
11:16PM 54.8097 -27.9677 85° East  Level Estimated
11:17PM 54.8208 -27.7379 85° East  Level Estimated
11:18PM 54.8315 -27.5080 85° East  Level Estimated
11:19PM 54.8417 -27.2780 85° East  Level Estimated
11:20PM 54.8515 -27.0479 86° East  Level Estimated
11:21PM 54.8609 -26.8176 86° East  Level Estimated
11:22PM 54.8698 -26.5873 86° East  Level Estimated
11:23PM 54.8783 -26.3568 86° East  Level Estimated
11:24PM 54.8864 -26.1263 86° East  Level Estimated
11:25PM 54.8940 -25.8957 87° East  Level Estimated
11:26PM 54.9012 -25.6650 87° East  Level Estimated
11:27PM 54.9079 -25.4342 87° East  Level Estimated
11:28PM 54.9142 -25.2033 87° East  Level Estimated
11:29PM 54.9201 -24.9724 87° East  Level Estimated
11:30PM 54.9255 -24.7414 88° East  Level Estimated
11:31PM 54.9305 -24.5103 88° East  Level Estimated
11:32PM 54.9351 -24.2792 88° East  Level Estimated
11:33PM 54.9392 -24.0481 88° East  Level Estimated
11:34PM 54.9429 -23.8169 88° East  Level Estimated
11:35PM 54.9462 -23.5856 89° East  Level Estimated
11:36PM 54.9490 -23.3543 89° East  Level Estimated
11:37PM 54.9513 -23.1230 89° East  Level Estimated
11:38PM 54.9533 -22.8917 89° East  Level Estimated
11:39PM 54.9548 -22.6603 89° East  Level Estimated
11:40PM 54.9558 -22.4289 89° East  Level Estimated
11:41PM 54.9564 -22.1976 90° East  Level Estimated
11:42PM 54.9566 -21.9662 90° East  Level Estimated
11:43PM 54.9563 -21.7348 90° East  Level Estimated
11:44PM 54.9556 -21.5034 90° East  Level Estimated
11:45PM 54.9544 -21.2720 90° East  Level Estimated
11:46PM 54.9529 -21.0407 91° East  Level Estimated
11:47PM 54.9508 -20.8094 91° East  Level Estimated
11:48PM 54.9484 -20.5781 91° East  Level Estimated
11:49PM 54.9455 -20.3468 91° East  Level Estimated
11:50PM 54.9421 -20.1155 91° East  Level Estimated
11:51PM 54.9384 -19.8843 92° East  Level Estimated
11:52PM 54.9341 -19.6532 92° East  Level Estimated
11:53PM 54.9295 -19.4221 92° East  Level Estimated
11:54PM 54.9244 -19.1910 92° East  Level Estimated
11:55PM 54.9188 -18.9601 92° East  Level Estimated
11:56PM 54.9129 -18.7291 92° East  Level Estimated
11:57PM 54.9065 -18.4983 93° East  Level Estimated
11:58PM 54.8996 -18.2675 93° East  Level Estimated
11:59PM 54.8923 -18.0368 93° East  Level Estimated
12:00AM 54.8846 -17.8062 93° East  Level Estimated
12:01AM 54.8764 -17.5757 93° East  Level Estimated
12:02AM 54.8679 -17.3453 94° East  Level Estimated
12:03AM 54.8588 -17.1150 94° East  Level Estimated
12:04AM 54.8494 -16.8848 94° East  Level Estimated
12:05AM 54.8395 -16.6546 94° East  Level Estimated
12:06AM 54.8291 -16.4247 94° East  Level Estimated
12:07AM 54.8184 -16.1948 95° East  Level Estimated
12:08AM 54.8072 -15.9650 95° East  Level Estimated
12:09AM 54.7955 -15.7354 95° East  Level Estimated
12:10AM 54.7834 -15.5060 95° East  Level Estimated
12:11AM 54.7709 -15.2766 95° East  Level Estimated
12:12AM 54.7580 -15.0474 95° East  Level Estimated
12:13AM 54.7446 -14.8184 96° East  Level Estimated
12:14AM 54.7308 -14.5895 96° East  Level Estimated
12:15AM 54.7166 -14.3608 96° East  Level Estimated
12:16AM 54.7019 -14.1322 96° East  Level Estimated
12:17AM 54.6869 -13.9038 96° East  Level Estimated
12:18AM 54.6713 -13.6756 97° East  Level Estimated
12:19AM 54.6554 -13.4475 97° East  Level Estimated
12:20AM 54.6390 -13.2197 97° East  Level Estimated
12:21AM 54.6222 -12.9920 97° East  Level Estimated
12:22AM 54.6050 -12.7645 97° East  Level Estimated
12:23AM 54.5873 -12.5372 98° East  Level Estimated
12:24AM 54.5692 -12.3101 98° East  Level Estimated
12:25AM 54.5507 -12.0832 98° East  Level Estimated
12:26AM 54.5318 -11.8565 98° East  Level Estimated
12:27AM 54.5124 -11.6300 98° East  Level Estimated
12:28AM 54.4927 -11.4037 98° East  Level Estimated
12:29AM 54.4725 -11.1777 99° East  Level Estimated
12:30AM 54.4518 -10.9519 99° East  Level Estimated
12:31AM 54.4308 -10.7263 99° East  Level Estimated
12:32AM 54.4093 -10.5009 99° East  Level Estimated
12:33AM 54.3875 -10.2758 99° East  Level Estimated
12:34AM 54.3652 -10.0510 100° East  Level Estimated
12:35AM 54.3424 -9.8264 100° East  Level Estimated
12:36AM 54.3193 -9.6020 100° East  Level Estimated
12:37AM 54.2958 -9.3779 100° East  Level Estimated
12:38AM 54.2718 -9.1540 100° East  Level Estimated
12:39AM 54.2474 -8.9304 100° East  Level Estimated
12:40AM 54.2226 -8.7071 101° East  Level Estimated
12:41AM 54.1974 -8.4840 101° East  Level Estimated
12:42AM 54.1718 -8.2612 101° East  Level Estimated
12:43AM 54.1458 -8.0387 101° East  Level Estimated
12:44AM 54.1194 -7.8165 101° East  Level Estimated
12:45AM 54.0925 -7.5945 102° East  Level Estimated
12:46AM 54.0653 -7.3729 102° East  Level Estimated
12:47AM 54.0376 -7.1515 102° East  Level Estimated
12:48AM 54.0096 -6.9305 102° East  Level Estimated
12:49AM 53.9811 -6.7097 102° East  Level Estimated
12:50AM 53.9522 -6.4893 102° East  Level Estimated
12:51AM 53.9229 -6.2691 103° East  Level Estimated
12:52AM 53.8933 -6.0493 103° East  Level Estimated
12:53AM 53.8632 -5.8297 103° East  Level Estimated
12:54AM 53.8327 -5.6105 103° East  Level Estimated
12:55AM 53.8018 -5.3916 103° East  Level Estimated
12:56AM 53.7705 -5.1731 104° East  Level Estimated
12:57AM 53.7389 -4.9548 104° East  Level Estimated
12:58AM 53.7068 -4.7369 104° East  Level Estimated
12:59AM 53.6743 -4.5194 104° East  Level Estimated
01:00AM 53.6415 -4.3021 104° East  Level Estimated
01:01AM 53.6082 -4.0852 104° East  Level Estimated
01:02AM 53.5746 -3.8687 105° East  Level Estimated
01:03AM 53.5406 -3.6525 105° East  Level Estimated
01:04AM 53.5061 -3.4366 105° East  Level Estimated
01:05AM 53.4713 -3.2211 105° East  Level Estimated
01:06AM 53.4361 -3.0059 105° East  Level Estimated
01:07AM 53.4006 -2.7912 105° East  Level Estimated
01:08AM 53.3646 -2.5767 106° East  Level Estimated
01:09AM 53.3282 -2.3626 106° East  Level Estimated
01:10AM 53.2915 -2.1490 106° East  Level Estimated
01:11AM 53.2544 -1.9356 106° East  Level Estimated
01:12AM 53.2169 -1.7227 106° East  Level Estimated
01:13AM 53.1790 -1.5101 106° East  Level Estimated
01:14AM 53.1408 -1.2979 107° East  Level Estimated
01:15AM 53.1021 -1.0860 107° East  Level Estimated
01:16AM 53.0631 -0.8746 107° East  Level Estimated
01:17AM 53.0238 -0.6635 107° East  Level Estimated
01:18AM 52.9840 -0.4529 107° East  Level Estimated
01:19AM 52.9439 -0.2426 107° East  Level Estimated
01:20AM 52.9034 -0.0327 108° East  Level Estimated
01:21AM 52.8625 0.1768 108° East  Level Estimated
01:22AM 52.8213 0.3859 108° East  Level Estimated
01:23AM 52.7797 0.5946 108° East  Level Estimated
01:24AM 52.7378 0.8030 108° East  Level Estimated
01:25AM 52.6954 1.0108 108° East  Level Estimated
01:26AM 52.6527 1.2184 109° East  Level Estimated
01:27AM 52.6097 1.4254 109° East  Level Estimated
01:28AM 52.5663 1.6321 109° East  Level Estimated
01:29AM 52.5225 1.8384 109° East  Level Estimated
01:30AM 52.4784 2.0443 109° East  Level Estimated
01:31AM 52.4339 2.2497 109° East  Level Estimated
01:32AM 52.3891 2.4547 110° East  Level Estimated
01:33AM 52.3439 2.6593 110° East  Level Estimated
01:34AM 52.2983 2.8635 110° East  Level Estimated
01:35AM 52.2524 3.0673 110° East  Level Estimated
01:36AM 52.2062 3.2706 110° East  Level Estimated
01:37AM 52.1596 3.4736 110° East  Level Estimated
01:38AM 52.1126 3.6761 111° Southeast  Level Estimated
01:39AM 52.0653 3.8781 111° Southeast  Level Estimated
01:40AM 52.0177 4.0798 111° Southeast  Level Estimated
01:41AM 51.9697 4.2810 111° Southeast  Level Estimated
01:42AM 51.9214 4.4818 111° Southeast  Level Estimated
01:43AM 51.8727 4.6821 111° Southeast  Level Estimated
01:44AM 51.8237 4.8820 112° Southeast  Level Estimated
01:45AM 51.7744 5.0815 112° Southeast  Level Estimated
01:46AM 51.7247 5.2806 112° Southeast  Level Estimated
01:47AM 51.6747 5.4792 112° Southeast  Level Estimated
01:48AM 51.6244 5.6773 112° Southeast  Level Estimated
01:49AM 51.5737 5.8750 112° Southeast  Level Estimated
01:50AM 51.5227 6.0723 113° Southeast  Level Estimated
01:51AM 51.4713 6.2692 113° Southeast  Level Estimated
01:52AM 51.4197 6.4655 113° Southeast  Level Estimated
01:53AM 51.3677 6.6615 113° Southeast  Level Estimated
01:54AM 51.3153 6.8570 113° Southeast  Level Estimated
01:55AM 51.2627 7.0521 113° Southeast  Level Estimated
01:56AM 51.2097 7.2467 113° Southeast  Level Estimated
01:57AM 51.1564 7.4408 114° Southeast  Level Estimated
01:58AM 51.1028 7.6345 114° Southeast  Level Estimated
01:59AM 51.0489 7.8278 114° Southeast  Level Estimated
02:00AM 50.9946 8.0206 114° Southeast  Level Estimated
02:01AM 50.9401 8.2130 114° Southeast  Level Estimated
02:02AM 50.8852 8.4049 114° Southeast  Level Estimated
02:03AM 50.8300 8.5963 114° Southeast  Level Estimated
02:04AM 50.7745 8.7873 115° Southeast  Level Estimated
02:05AM 50.7187 8.9778 115° Southeast  Level Estimated
02:06AM 50.6625 9.1679 115° Southeast  Level Estimated
02:07AM 50.6061 9.3576 115° Southeast  Level Estimated
02:08AM 50.5494 9.5468 115° Southeast  Level Estimated
02:09AM 50.4923 9.7355 115° Southeast  Level Estimated
02:10AM 50.4349 9.9237 116° Southeast  Level Estimated
02:11AM 50.3773 10.1116 116° Southeast  Level Estimated
02:12AM 50.3193 10.2989 116° Southeast  Level Estimated
02:13AM 50.2611 10.4858 116° Southeast  Level Estimated
02:14AM 50.2025 10.6722 116° Southeast  Level Estimated
02:15AM 50.1436 10.8582 116° Southeast  Level Estimated
02:16AM 50.0845 11.0437 116° Southeast  Level Estimated
02:17AM 50.0250 11.2288 117° Southeast  Level Estimated
02:18AM 49.9653 11.4134 117° Southeast  Level Estimated
02:19AM 49.9053 11.5975 117° Southeast  Level Estimated
02:20AM 49.8450 11.7812 117° Southeast  Level Estimated
02:21AM 49.7843 11.9644 117° Southeast  Level Estimated
02:22AM 49.7234 12.1472 117° Southeast  Level Estimated
02:23AM 49.6623 12.3295 117° Southeast  Level Estimated
02:24AM 49.6008 12.5114 117° Southeast  Level Estimated
02:25AM 49.5390 12.6928 118° Southeast  Level Estimated
02:26AM 49.4770 12.8737 118° Southeast  Level Estimated
02:27AM 49.4147 13.0542 118° Southeast  Level Estimated
02:28AM 49.3521 13.2342 118° Southeast  Level Estimated
02:29AM 49.2892 13.4137 118° Southeast  Level Estimated
02:30AM 49.2260 13.5928 118° Southeast  Level Estimated
02:31AM 49.1626 13.7715 118° Southeast  Level Estimated
02:32AM 49.0989 13.9497 119° Southeast  Level Estimated
02:33AM 49.0349 14.1274 119° Southeast  Level Estimated
02:34AM 48.9706 14.3046 119° Southeast  Level Estimated
02:35AM 48.9061 14.4815 119° Southeast  Level Estimated
02:36AM 48.8413 14.6578 119° Southeast  Level Estimated
02:37AM 48.7762 14.8337 119° Southeast  Level Estimated
02:38AM 48.7109 15.0091 119° Southeast  Level Estimated
02:39AM 48.6453 15.1841 120° Southeast  Level Estimated
02:40AM 48.5794 15.3586 120° Southeast  Level Estimated
02:41AM 48.5133 15.5327 120° Southeast  Level Estimated
02:42AM 48.4469 15.7063 120° Southeast  Level Estimated
02:43AM 48.3803 15.8795 120° Southeast  Level Estimated
02:44AM 48.3134 16.0522 120° Southeast  Level Estimated
02:45AM 48.2462 16.2245 120° Southeast  Level Estimated
02:46AM 48.1788 16.3963 120° Southeast  Level Estimated
02:47AM 48.1111 16.5676 121° Southeast  Level Estimated
02:48AM 48.1103 16.5697 121° Southeast  Level Estimated
02:49AM 48.1103 16.5697 146° Southeast  Level Estimated
02:50AM 48.1103 16.5697 146° Southeast  Level Estimated
02:51AM 48.1103 16.5697 146° Southeast  Level Estimated
02:52AM 48.1103 16.5697 146° Southeast  Level Estimated